createdAt,value
2023-01-19T00:00:34.539Z,99354.56
2023-01-19T00:03:03.799Z,99350.16
2023-01-19T00:05:33.855Z,99351.69
2023-01-19T00:08:14.810Z,99350.63
2023-01-19T00:10:47.648Z,99354.88
2023-01-19T00:13:17.948Z,99359.28
2023-01-19T00:15:47.145Z,99357.41
2023-01-19T00:18:16.399Z,99352.91
2023-01-19T00:20:47.511Z,99353.81
2023-01-19T00:23:17.386Z,99350.47
2023-01-19T00:25:51.153Z,99339.09
2023-01-19T00:28:22.414Z,99348.41
2023-01-19T00:30:52.843Z,99342.97
2023-01-19T00:33:22.061Z,99342.59
2023-01-19T00:35:54.972Z,99342.66
2023-01-19T00:38:24.209Z,99346.28
2023-01-19T00:40:56.010Z,99354.50
2023-01-19T00:43:25.396Z,99360.28
2023-01-19T00:45:54.599Z,99365.50
2023-01-19T00:48:24.110Z,99358.97
2023-01-19T00:50:53.341Z,99360.66
2023-01-19T00:53:22.600Z,99355.88
2023-01-19T00:55:51.797Z,99345.16
2023-01-19T00:58:24.239Z,99355.88
2023-01-19T01:00:57.531Z,99357.81
2023-01-19T01:03:28.671Z,99359.81
2023-01-19T01:05:57.924Z,99358.00
2023-01-19T01:08:27.188Z,99353.94
2023-01-19T01:10:57.236Z,99346.66
2023-01-19T01:13:29.540Z,99347.06
2023-01-19T01:15:59.447Z,99344.75
2023-01-19T01:18:28.776Z,99345.59
2023-01-19T01:21:03.416Z,99341.56
2023-01-19T01:23:32.671Z,99342.09
2023-01-19T01:26:02.245Z,99357.13
2023-01-19T01:28:34.064Z,99354.94
2023-01-19T01:31:03.272Z,99354.06
2023-01-19T01:33:40.543Z,99352.38
2023-01-19T01:36:11.257Z,99346.38
2023-01-19T01:38:40.485Z,99354.13
2023-01-19T01:41:09.908Z,99361.56
2023-01-19T01:43:49.707Z,99360.03
2023-01-19T01:46:20.099Z,99365.66
2023-01-19T01:48:53.148Z,99349.09
2023-01-19T01:51:27.431Z,99361.03
2023-01-19T01:54:17.757Z,99365.00
2023-01-19T01:56:48.076Z,99351.53
2023-01-19T01:59:26.123Z,99339.22
2023-01-19T02:02:08.140Z,99335.44
2023-01-19T02:04:38.629Z,99341.97
2023-01-19T02:07:20.426Z,99336.78
2023-01-19T02:10:02.193Z,99335.13
2023-01-19T02:12:44.345Z,99342.19
2023-01-19T02:15:21.094Z,99346.81
2023-01-19T02:17:50.992Z,99339.13
2023-01-19T02:20:21.387Z,99350.88
2023-01-19T02:22:51.694Z,99344.22
2023-01-19T02:25:24.083Z,99351.28
2023-01-19T02:27:55.422Z,99345.16
2023-01-19T02:30:24.766Z,99350.69
2023-01-19T02:32:53.989Z,99343.72
2023-01-19T02:35:23.695Z,99350.06
2023-01-19T02:37:53.831Z,99339.66
2023-01-19T02:40:26.404Z,99345.47
2023-01-19T02:42:59.220Z,99345.28
2023-01-19T02:45:29.519Z,99345.66
2023-01-19T02:47:58.791Z,99346.88
2023-01-19T02:50:46.159Z,99346.38
2023-01-19T02:53:23.533Z,99344.22
2023-01-19T02:55:59.219Z,99349.94
2023-01-19T02:58:33.867Z,99344.16
2023-01-19T03:01:08.674Z,99359.81
2023-01-19T03:03:42.283Z,99354.34
2023-01-19T03:06:15.729Z,99359.06
2023-01-19T03:08:47.737Z,99355.16
2023-01-19T03:11:19.618Z,99356.16
2023-01-19T03:13:52.102Z,99345.16
2023-01-19T03:16:23.525Z,99342.28
2023-01-19T03:18:54.747Z,99350.06
2023-01-19T03:21:26.230Z,99347.88
2023-01-19T03:23:57.460Z,99338.59
2023-01-19T03:26:32.675Z,99345.75
2023-01-19T03:29:03.469Z,99347.00
2023-01-19T03:31:34.301Z,99341.94
2023-01-19T03:34:06.721Z,99353.06
2023-01-19T03:36:38.729Z,99341.78
2023-01-19T03:39:08.683Z,99335.47
2023-01-19T03:41:41.999Z,99345.88
2023-01-19T03:44:12.145Z,99341.97
2023-01-19T03:46:42.000Z,99333.16
2023-01-19T03:49:12.070Z,99331.38
2023-01-19T03:51:41.709Z,99342.75
2023-01-19T03:54:12.719Z,99343.63
2023-01-19T03:56:44.952Z,99346.59
2023-01-19T03:59:17.403Z,99328.09
2023-01-19T04:01:46.715Z,99336.09
2023-01-19T04:04:16.129Z,99339.03
2023-01-19T04:06:45.675Z,99336.00
2023-01-19T04:09:14.914Z,99339.22
2023-01-19T04:11:46.750Z,99346.25
2023-01-19T04:14:15.940Z,99345.09
2023-01-19T04:16:45.209Z,99333.28
2023-01-19T04:19:14.488Z,99341.47
2023-01-19T04:21:43.706Z,99339.88
2023-01-19T04:24:13.265Z,99335.34
2023-01-19T04:26:42.547Z,99337.88
2023-01-19T04:29:14.413Z,99340.53
2023-01-19T04:31:43.630Z,99342.22
2023-01-19T04:34:12.940Z,99333.06
2023-01-19T04:36:42.130Z,99336.41
2023-01-19T04:39:11.784Z,99322.75
2023-01-19T04:41:40.973Z,99320.63
2023-01-19T04:44:10.183Z,99326.47
2023-01-19T04:46:42.019Z,99336.78
2023-01-19T04:49:11.259Z,99333.81
2023-01-19T04:51:40.530Z,99335.63
2023-01-19T04:54:10.291Z,99327.50
2023-01-19T04:56:40.897Z,99337.31
2023-01-19T04:59:10.176Z,99337.84
2023-01-19T05:01:42.064Z,99331.16
2023-01-19T05:04:11.296Z,99334.84
2023-01-19T05:06:40.504Z,99332.34
2023-01-19T05:09:13.164Z,99338.84
2023-01-19T05:11:42.417Z,99330.38
2023-01-19T05:14:11.678Z,99322.53
2023-01-19T05:16:43.446Z,99321.03
2023-01-19T05:19:12.658Z,99326.34
2023-01-19T05:21:42.155Z,99326.34
2023-01-19T05:24:11.640Z,99321.03
2023-01-19T05:26:41.010Z,99326.53
2023-01-19T05:29:10.636Z,99327.84
2023-01-19T05:31:40.029Z,99320.00
2023-01-19T05:34:14.527Z,99325.66
2023-01-19T05:36:43.734Z,99321.16
2023-01-19T05:39:12.977Z,99326.47
2023-01-19T05:41:42.342Z,99331.97
2023-01-19T05:44:12.371Z,99342.78
2023-01-19T05:46:41.659Z,99342.97
2023-01-19T05:49:14.532Z,99351.50
2023-01-19T05:51:45.479Z,99348.66
2023-01-19T05:54:15.392Z,99344.00
2023-01-19T05:56:44.825Z,99345.00
2023-01-19T05:59:15.322Z,99349.34
2023-01-19T06:01:44.558Z,99352.16
2023-01-19T06:04:16.371Z,99341.66
2023-01-19T06:06:45.566Z,99345.84
2023-01-19T06:09:14.801Z,99340.50
2023-01-19T06:11:44.024Z,99333.00
2023-01-19T06:14:13.636Z,99347.16
2023-01-19T06:16:42.939Z,99348.50
2023-01-19T06:19:12.438Z,99346.69
2023-01-19T06:21:49.557Z,99352.53
2023-01-19T06:24:19.054Z,99357.53
2023-01-19T06:26:48.339Z,99353.69
2023-01-19T06:29:18.404Z,99358.34
2023-01-19T06:31:47.836Z,99354.34
2023-01-19T06:34:17.046Z,99357.47
2023-01-19T06:36:49.057Z,99361.63
2023-01-19T06:39:18.284Z,99364.94
2023-01-19T06:41:47.571Z,99365.31
2023-01-19T06:44:16.952Z,99361.97
2023-01-19T06:46:46.395Z,99355.13
2023-01-19T06:49:15.676Z,99362.47
2023-01-19T06:51:44.901Z,99364.47
2023-01-19T06:54:16.759Z,99366.00
2023-01-19T06:56:46.088Z,99366.50
2023-01-19T06:59:15.361Z,99372.34
2023-01-19T07:01:44.767Z,99380.69
2023-01-19T07:04:15.257Z,99384.00
2023-01-19T07:06:44.528Z,99384.84
2023-01-19T07:09:15.630Z,99387.38
2023-01-19T07:11:48.621Z,99392.38
2023-01-19T07:14:18.150Z,99390.56
2023-01-19T07:16:47.540Z,99395.38
2023-01-19T07:19:16.827Z,99400.41
2023-01-19T07:21:46.051Z,99398.06
2023-01-19T07:24:15.245Z,99394.75
2023-01-19T07:26:44.511Z,99403.44
2023-01-19T07:29:16.290Z,99408.75
2023-01-19T07:31:45.734Z,99404.25
2023-01-19T07:34:15.032Z,99421.59
2023-01-19T07:36:44.312Z,99420.41
2023-01-19T07:39:13.477Z,99419.91
2023-01-19T07:41:42.694Z,99418.78
2023-01-19T07:44:12.028Z,99427.63
2023-01-19T07:46:43.922Z,99426.13
2023-01-19T07:49:13.483Z,99431.13
2023-01-19T07:51:42.997Z,99427.78
2023-01-19T07:54:12.249Z,99435.63
2023-01-19T07:56:41.550Z,99432.78
2023-01-19T07:59:12.235Z,99437.28
2023-01-19T08:01:44.678Z,99437.66
2023-01-19T08:04:14.018Z,99437.66
2023-01-19T08:06:43.377Z,99447.16
2023-01-19T08:09:12.595Z,99452.47
2023-01-19T08:11:41.875Z,99455.81
2023-01-19T08:14:11.171Z,99456.66
2023-01-19T08:16:40.464Z,99455.16
2023-01-19T08:19:12.440Z,99451.31
2023-01-19T08:21:41.670Z,99449.81
2023-01-19T08:24:19.605Z,99443.69
2023-01-19T08:26:48.893Z,99451.81
2023-01-19T08:29:18.172Z,99445.50
2023-01-19T08:31:47.458Z,99453.50
2023-01-19T08:34:19.370Z,99452.00
2023-01-19T08:36:49.280Z,99446.34
2023-01-19T08:39:18.528Z,99446.84
2023-01-19T08:41:47.767Z,99455.00
2023-01-19T08:44:17.060Z,99445.69
2023-01-19T08:46:46.692Z,99446.34
2023-01-19T08:49:15.968Z,99457.50
2023-01-19T08:51:49.162Z,99464.50
2023-01-19T08:54:18.839Z,99467.84
2023-01-19T08:56:48.077Z,99466.38
2023-01-19T08:59:17.582Z,99477.53
2023-01-19T09:01:46.979Z,99476.34
2023-01-19T09:04:16.299Z,99483.88
2023-01-19T09:06:48.365Z,99479.72
2023-01-19T09:09:17.624Z,99490.00
2023-01-19T09:11:50.305Z,99490.53
2023-01-19T09:14:19.531Z,99481.69
2023-01-19T09:16:48.865Z,99486.88
2023-01-19T09:19:18.337Z,99491.34
2023-01-19T09:21:50.897Z,99498.84
2023-01-19T09:24:20.124Z,99500.00
2023-01-19T09:26:49.417Z,99511.22
2023-01-19T09:29:18.703Z,99502.63
2023-01-19T09:31:48.564Z,99507.34
2023-01-19T09:34:17.965Z,99506.31
2023-01-19T09:36:49.796Z,99519.75
2023-01-19T09:39:19.061Z,99519.63
2023-01-19T09:41:49.896Z,99512.16
2023-01-19T09:44:20.927Z,99514.13
2023-01-19T09:46:50.194Z,99515.22
2023-01-19T09:49:21.552Z,99510.41
2023-01-19T09:51:53.878Z,99519.97
2023-01-19T09:54:34.215Z,99522.97
2023-01-19T09:57:03.512Z,99534.03
2023-01-19T09:59:33.734Z,99526.19
2023-01-19T10:02:08.896Z,99536.16
2023-01-19T10:04:41.659Z,99542.06
2023-01-19T10:07:26.298Z,99535.22
2023-01-19T10:10:10.319Z,99542.97
2023-01-19T10:12:45.962Z,99544.09
2023-01-19T10:15:19.841Z,99538.00
2023-01-19T10:17:52.832Z,99550.53
2023-01-19T10:20:26.547Z,99555.75
2023-01-19T10:23:00.491Z,99556.19
2023-01-19T10:25:30.428Z,99552.34
2023-01-19T10:28:01.152Z,99552.34
2023-01-19T10:30:31.747Z,99544.63
2023-01-19T10:33:01.202Z,99548.31
2023-01-19T10:35:32.356Z,99552.78
2023-01-19T10:38:05.292Z,99557.28
2023-01-19T10:40:36.986Z,99554.41
2023-01-19T10:43:21.106Z,99543.63
2023-01-19T10:45:52.834Z,99550.78
2023-01-19T10:48:22.103Z,99540.13
2023-01-19T10:50:51.322Z,99543.72
2023-01-19T10:53:25.788Z,99541.38
2023-01-19T10:56:13.781Z,99546.09
2023-01-19T10:58:43.209Z,99547.31
2023-01-19T11:01:17.055Z,99558.91
2023-01-19T11:03:46.618Z,99557.38
2023-01-19T11:06:26.159Z,99560.53
2023-01-19T11:09:13.643Z,99554.75
2023-01-19T11:11:50.827Z,99560.41
2023-01-19T11:14:24.628Z,99564.16
2023-01-19T11:16:55.713Z,99561.25
2023-01-19T11:19:28.663Z,99561.78
2023-01-19T11:22:11.672Z,99563.31
2023-01-19T11:24:43.860Z,99562.00
2023-01-19T11:27:13.162Z,99558.16
2023-01-19T11:29:42.499Z,99553.50
2023-01-19T11:32:12.988Z,99563.53
2023-01-19T11:34:42.231Z,99561.66
2023-01-19T11:37:28.752Z,99566.69
2023-01-19T11:40:02.969Z,99566.22
2023-01-19T11:42:34.017Z,99561.50
2023-01-19T11:45:06.447Z,99558.63
2023-01-19T11:47:38.751Z,99564.00
2023-01-19T11:50:09.264Z,99563.16
2023-01-19T11:52:42.315Z,99572.13
2023-01-19T11:55:20.017Z,99567.63
2023-01-19T11:57:50.904Z,99577.00
2023-01-19T12:00:26.841Z,99568.75
2023-01-19T12:02:58.125Z,99574.91
2023-01-19T12:05:29.420Z,99578.41
2023-01-19T12:08:02.521Z,99574.41
2023-01-19T12:10:37.551Z,99578.84
2023-01-19T12:13:06.831Z,99577.81
2023-01-19T12:15:38.472Z,99578.47
2023-01-19T12:18:09.216Z,99585.25
2023-01-19T12:20:40.712Z,99579.94
2023-01-19T12:23:16.513Z,99597.06
2023-01-19T12:25:56.772Z,99586.28
2023-01-19T12:28:29.296Z,99593.38
2023-01-19T12:30:59.431Z,99588.31
2023-01-19T12:33:38.613Z,99599.91
2023-01-19T12:36:14.315Z,99599.66
2023-01-19T12:38:49.885Z,99603.00
2023-01-19T12:41:26.428Z,99611.25
2023-01-19T12:44:10.827Z,99611.81
2023-01-19T12:46:40.973Z,99600.16
2023-01-19T12:49:14.867Z,99615.47
2023-01-19T12:51:44.236Z,99597.66
2023-01-19T12:54:21.353Z,99613.22
2023-01-19T12:56:59.632Z,99623.00
2023-01-19T12:59:29.603Z,99624.41
2023-01-19T13:02:13.977Z,99620.81
2023-01-19T13:04:43.267Z,99625.50
2023-01-19T13:07:17.931Z,99622.72
2023-01-19T13:09:47.176Z,99626.72
2023-01-19T13:12:29.039Z,99633.25
2023-01-19T13:15:13.373Z,99629.97
2023-01-19T13:17:50.151Z,99630.69
2023-01-19T13:20:27.457Z,99634.53
2023-01-19T13:23:17.907Z,99639.81
2023-01-19T13:25:49.416Z,99640.97
2023-01-19T13:28:22.581Z,99644.50
2023-01-19T13:30:57.943Z,99632.84
2023-01-19T13:33:28.463Z,99645.09
2023-01-19T13:35:59.015Z,99643.94
2023-01-19T13:38:29.428Z,99652.13
2023-01-19T13:40:59.352Z,99654.94
2023-01-19T13:43:35.011Z,99647.31
2023-01-19T13:46:05.774Z,99648.63
2023-01-19T13:48:35.382Z,99648.63
2023-01-19T13:51:06.401Z,99659.19
2023-01-19T13:53:36.619Z,99658.22
2023-01-19T13:56:13.029Z,99660.59
2023-01-19T13:58:44.956Z,99669.63
2023-01-19T14:01:26.615Z,99680.34
2023-01-19T14:03:57.134Z,99676.19
2023-01-19T14:06:31.786Z,99685.69
2023-01-19T14:09:10.837Z,99678.00
2023-01-19T14:11:40.185Z,99681.69
2023-01-19T14:14:25.692Z,99688.03
2023-01-19T14:16:57.479Z,99700.03
2023-01-19T14:19:26.768Z,99699.84
2023-01-19T14:22:03.285Z,99697.50
2023-01-19T14:24:33.368Z,99699.19
2023-01-19T14:27:18.853Z,99700.53
2023-01-19T14:29:50.585Z,99704.38
2023-01-19T14:32:23.850Z,99709.22
2023-01-19T14:34:54.075Z,99712.56
2023-01-19T14:37:28.057Z,99706.72
2023-01-19T14:40:00.248Z,99713.06
2023-01-19T14:42:31.207Z,99712.41
2023-01-19T14:45:02.576Z,99714.88
2023-01-19T14:47:36.421Z,99725.38
2023-01-19T14:50:10.875Z,99731.44
2023-01-19T14:52:42.424Z,99729.06
2023-01-19T14:55:21.560Z,99735.22
2023-01-19T14:57:50.836Z,99736.06
2023-01-19T15:00:21.117Z,99736.94
2023-01-19T15:02:52.921Z,99743.63
2023-01-19T15:05:22.427Z,99748.59
2023-01-19T15:07:52.644Z,99747.13
2023-01-19T15:10:23.639Z,99749.09
2023-01-19T15:12:53.840Z,99755.72
2023-01-19T15:15:25.884Z,99761.56
2023-01-19T15:17:57.963Z,99760.34
2023-01-19T15:20:27.191Z,99771.31
2023-01-19T15:22:56.389Z,99777.06
2023-01-19T15:25:27.390Z,99778.53
2023-01-19T15:28:00.119Z,99780.50
2023-01-19T15:30:31.249Z,99783.88
2023-01-19T15:33:03.159Z,99782.75
2023-01-19T15:35:32.532Z,99797.41
2023-01-19T15:38:01.785Z,99805.19
2023-01-19T15:40:31.066Z,99805.78
2023-01-19T15:43:00.295Z,99809.63
2023-01-19T15:45:39.444Z,99813.44
2023-01-19T15:48:12.443Z,99809.38
2023-01-19T15:50:42.208Z,99812.91
2023-01-19T15:53:15.514Z,99821.50
2023-01-19T15:55:45.118Z,99823.28
2023-01-19T15:58:14.876Z,99828.97
2023-01-19T16:00:44.259Z,99834.97
2023-01-19T16:03:16.116Z,99830.38
2023-01-19T16:05:46.737Z,99834.59
2023-01-19T16:08:16.242Z,99832.53
2023-01-19T16:10:45.980Z,99841.16
2023-01-19T16:13:15.261Z,99846.22
2023-01-19T16:15:44.878Z,99847.81
2023-01-19T16:18:16.724Z,99844.75
2023-01-19T16:20:46.011Z,99844.31
2023-01-19T16:23:15.765Z,99841.25
2023-01-19T16:25:45.530Z,99836.81
2023-01-19T16:28:14.779Z,99846.25
2023-01-19T16:30:44.028Z,99849.72
2023-01-19T16:33:14.263Z,99850.72
2023-01-19T16:35:46.091Z,99858.19
2023-01-19T16:38:15.630Z,99862.69
2023-01-19T16:40:46.039Z,99864.81
2023-01-19T16:43:15.980Z,99863.28
2023-01-19T16:45:58.487Z,99867.09
2023-01-19T16:48:28.084Z,99875.38
2023-01-19T16:51:04.269Z,99869.19
2023-01-19T16:53:34.826Z,99874.38
2023-01-19T16:56:06.537Z,99881.94
2023-01-19T16:58:37.503Z,99885.34
2023-01-19T17:01:10.938Z,99889.81
2023-01-19T17:03:41.096Z,99894.59
2023-01-19T17:06:14.073Z,99895.00
2023-01-19T17:08:43.339Z,99896.69
2023-01-19T17:11:13.565Z,99898.97
2023-01-19T17:13:43.046Z,99893.94
2023-01-19T17:16:12.258Z,99901.75
2023-01-19T17:18:41.555Z,99903.84
2023-01-19T17:21:17.570Z,99907.22
2023-01-19T17:23:47.942Z,99908.22
2023-01-19T17:26:17.208Z,99908.88
2023-01-19T17:28:46.803Z,99907.53
2023-01-19T17:31:17.338Z,99911.28
2023-01-19T17:33:46.893Z,99909.06
2023-01-19T17:36:21.132Z,99914.78
2023-01-19T17:38:50.557Z,99916.31
2023-01-19T17:41:20.485Z,99918.19
2023-01-19T17:43:50.311Z,99918.03
2023-01-19T17:46:19.853Z,99924.75
2023-01-19T17:48:53.134Z,99932.06
2023-01-19T17:51:25.564Z,99940.72
2023-01-19T17:53:55.538Z,99934.00
2023-01-19T17:56:28.440Z,99940.59
2023-01-19T17:58:58.325Z,99938.22
2023-01-19T18:01:28.505Z,99943.84
2023-01-19T18:03:57.832Z,99946.31
2023-01-19T18:06:29.666Z,99944.63
2023-01-19T18:08:59.437Z,99951.81
2023-01-19T18:11:29.268Z,99951.38
2023-01-19T18:13:58.605Z,99956.84
2023-01-19T18:16:29.250Z,99958.78
2023-01-19T18:18:59.301Z,99959.66
2023-01-19T18:21:31.240Z,99962.03
2023-01-19T18:24:04.862Z,99960.19
2023-01-19T18:26:34.840Z,99967.50
2023-01-19T18:29:04.063Z,99968.75
2023-01-19T18:31:33.670Z,99972.81
2023-01-19T18:34:02.957Z,99970.44
2023-01-19T18:36:34.947Z,99984.03
2023-01-19T18:39:04.387Z,99980.53
2023-01-19T18:41:35.516Z,99984.00
2023-01-19T18:44:04.714Z,99980.25
2023-01-19T18:46:33.973Z,99984.72
2023-01-19T18:49:03.163Z,99988.34
2023-01-19T18:51:34.971Z,99981.78
2023-01-19T18:54:04.239Z,99993.09
2023-01-19T18:56:33.450Z,99985.53
2023-01-19T18:59:05.052Z,99987.78
2023-01-19T19:01:36.117Z,99994.91
2023-01-19T19:04:05.560Z,99987.75
2023-01-19T19:06:37.506Z,99985.50
2023-01-19T19:09:06.791Z,99993.38
2023-01-19T19:11:37.072Z,99995.59
2023-01-19T19:14:06.862Z,99995.19
2023-01-19T19:16:39.278Z,99994.50
2023-01-19T19:19:12.080Z,100003.47
2023-01-19T19:21:44.673Z,100000.97
2023-01-19T19:24:14.021Z,99999.00
2023-01-19T19:26:44.046Z,100002.78
2023-01-19T19:29:13.453Z,100010.34
2023-01-19T19:31:43.069Z,100015.66
2023-01-19T19:34:12.687Z,100018.19
2023-01-19T19:36:44.889Z,100028.25
2023-01-19T19:39:14.302Z,100024.91
2023-01-19T19:41:43.717Z,100031.75
2023-01-19T19:44:13.515Z,100029.34
2023-01-19T19:46:43.969Z,100021.25
2023-01-19T19:49:13.582Z,100029.63
2023-01-19T19:51:45.753Z,100044.63
2023-01-19T19:54:15.345Z,100028.94
2023-01-19T19:56:46.107Z,100043.47
2023-01-19T19:59:18.850Z,100042.91
2023-01-19T20:01:49.865Z,100047.25
2023-01-19T20:04:21.241Z,100050.50
2023-01-19T20:06:53.071Z,100048.81
2023-01-19T20:09:22.313Z,100048.97
2023-01-19T20:11:52.344Z,100051.91
2023-01-19T20:14:22.505Z,100049.94
2023-01-19T20:16:52.623Z,100054.13
2023-01-19T20:19:21.881Z,100047.56
2023-01-19T20:21:53.678Z,100057.50
2023-01-19T20:24:23.325Z,100060.84
2023-01-19T20:26:54.755Z,100061.59
2023-01-19T20:29:24.006Z,100069.72
2023-01-19T20:31:54.159Z,100068.75
2023-01-19T20:34:25.550Z,100071.97
2023-01-19T20:36:57.357Z,100075.44
2023-01-19T20:39:26.847Z,100075.31
2023-01-19T20:41:56.042Z,100084.94
2023-01-19T20:44:29.098Z,100088.69
2023-01-19T20:46:58.383Z,100092.78
2023-01-19T20:49:27.659Z,100099.78
2023-01-19T20:51:59.523Z,100094.91
2023-01-19T20:54:30.771Z,100100.06
2023-01-19T20:57:00.329Z,100099.22
2023-01-19T20:59:29.503Z,100103.41
2023-01-19T21:01:58.864Z,100104.72
2023-01-19T21:04:28.277Z,100104.41
2023-01-19T21:07:00.022Z,100111.81
2023-01-19T21:09:29.252Z,100114.63
2023-01-19T21:11:58.452Z,100118.94
2023-01-19T21:14:27.688Z,100121.63
2023-01-19T21:16:58.485Z,100126.09
2023-01-19T21:19:27.847Z,100125.66
2023-01-19T21:21:59.718Z,100126.94
2023-01-19T21:24:29.295Z,100129.97
2023-01-19T21:26:58.475Z,100139.91
2023-01-19T21:29:27.730Z,100143.81
2023-01-19T21:31:57.017Z,100141.41
2023-01-19T21:34:26.328Z,100154.31
2023-01-19T21:36:55.539Z,100146.06
2023-01-19T21:39:27.313Z,100149.97
2023-01-19T21:41:56.568Z,100152.44
2023-01-19T21:44:25.869Z,100156.09
2023-01-19T21:46:55.794Z,100156.94
2023-01-19T21:49:25.053Z,100154.97
2023-01-19T21:51:55.500Z,100155.56
2023-01-19T21:54:27.339Z,100155.41
2023-01-19T21:56:56.682Z,100161.00
2023-01-19T21:59:25.963Z,100169.50
2023-01-19T22:01:55.359Z,100161.78
2023-01-19T22:04:24.616Z,100170.63
2023-01-19T22:06:53.778Z,100175.84
2023-01-19T22:09:22.983Z,100181.84
2023-01-19T22:11:54.795Z,100178.34
2023-01-19T22:14:24.000Z,100182.69
2023-01-19T22:16:53.290Z,100187.75
2023-01-19T22:19:22.888Z,100186.47
2023-01-19T22:21:52.123Z,100193.19
2023-01-19T22:24:21.362Z,100193.19
2023-01-19T22:26:50.591Z,100190.84
2023-01-19T22:29:22.431Z,100196.81
2023-01-19T22:31:52.386Z,100200.97
2023-01-19T22:34:21.729Z,100204.34
2023-01-19T22:36:50.990Z,100204.81
2023-01-19T22:39:20.550Z,100212.06
2023-01-19T22:41:49.782Z,100211.78
2023-01-19T22:44:20.852Z,100210.38
2023-01-19T22:46:53.071Z,100216.53
2023-01-19T22:49:22.315Z,100215.81
2023-01-19T22:51:53.907Z,100216.09
2023-01-19T22:54:23.276Z,100215.22
2023-01-19T22:56:52.555Z,100221.28
2023-01-19T22:59:21.744Z,100228.41
2023-01-19T23:01:53.791Z,100224.72
2023-01-19T23:04:23.160Z,100229.63
2023-01-19T23:06:53.648Z,100228.09
2023-01-19T23:09:22.990Z,100228.59
2023-01-19T23:11:53.024Z,100232.03
2023-01-19T23:14:23.596Z,100229.47
2023-01-19T23:16:55.401Z,100232.81
2023-01-19T23:19:24.608Z,100236.69
2023-01-19T23:21:54.533Z,100245.16
2023-01-19T23:24:23.924Z,100244.81
2023-01-19T23:26:53.353Z,100243.13
2023-01-19T23:29:23.329Z,100241.81
2023-01-19T23:31:56.329Z,100247.59
2023-01-19T23:34:25.537Z,100249.63
2023-01-19T23:36:54.807Z,100248.06
2023-01-19T23:39:24.786Z,100252.53
2023-01-19T23:41:54.035Z,100255.31
2023-01-19T23:44:23.235Z,100252.38
2023-01-19T23:46:55.050Z,100258.22
2023-01-19T23:49:24.263Z,100253.03
2023-01-19T23:51:53.492Z,100246.69
2023-01-19T23:54:22.794Z,100249.88
2023-01-19T23:56:52.092Z,100255.03
2023-01-19T23:59:21.269Z,100269.44
